createdAt,value
2023-02-06T00:00:53.622Z,29.10
2023-02-06T00:03:20.823Z,29.10
2023-02-06T00:05:59.090Z,29.10
2023-02-06T00:08:27.494Z,29.10
2023-02-06T00:10:55.048Z,29.10
2023-02-06T00:13:22.142Z,29.10
2023-02-06T00:15:49.334Z,29.10
2023-02-06T00:18:16.493Z,29.10
2023-02-06T00:20:43.551Z,29.10
2023-02-06T00:23:10.624Z,29.10
2023-02-06T00:25:37.932Z,29.50
2023-02-06T00:28:05.662Z,29.10
2023-02-06T00:30:32.847Z,29.10
2023-02-06T00:33:00.058Z,29.10
2023-02-06T00:35:27.225Z,29.10
2023-02-06T00:37:54.306Z,29.00
2023-02-06T00:40:21.496Z,29.00
2023-02-06T00:42:48.602Z,29.00
2023-02-06T00:45:15.744Z,29.10
2023-02-06T00:47:42.864Z,29.00
2023-02-06T00:50:10.151Z,29.50
2023-02-06T00:52:37.208Z,29.10
2023-02-06T00:55:04.635Z,29.10
2023-02-06T00:57:31.694Z,29.10
2023-02-06T00:59:58.758Z,29.50
2023-02-06T01:02:25.953Z,29.10
2023-02-06T01:04:52.996Z,29.10
2023-02-06T01:07:20.084Z,29.10
2023-02-06T01:09:47.140Z,29.10
2023-02-06T01:12:14.176Z,29.10
2023-02-06T01:14:41.265Z,29.10
2023-02-06T01:17:08.546Z,29.10
2023-02-06T01:19:36.745Z,29.10
2023-02-06T01:22:04.051Z,29.10
2023-02-06T01:24:31.257Z,29.10
2023-02-06T01:26:58.333Z,29.10
2023-02-06T01:29:25.400Z,29.10
2023-02-06T01:31:52.485Z,29.10
2023-02-06T01:34:19.533Z,29.10
2023-02-06T01:36:46.647Z,29.10
2023-02-06T01:39:13.694Z,29.10
2023-02-06T01:41:40.816Z,29.10
2023-02-06T01:44:22.144Z,29.10
2023-02-06T01:46:54.860Z,29.10
2023-02-06T01:49:32.278Z,29.10
2023-02-06T01:52:17.067Z,29.10
2023-02-06T01:54:48.418Z,29.20
2023-02-06T01:57:16.861Z,29.10
2023-02-06T01:59:49.782Z,29.10
2023-02-06T02:02:17.028Z,29.10
2023-02-06T02:04:45.205Z,29.10
2023-02-06T02:07:29.044Z,29.10
2023-02-06T02:09:56.311Z,29.10
2023-02-06T02:12:23.619Z,29.10
2023-02-06T02:14:53.370Z,29.10
2023-02-06T02:17:45.134Z,29.20
2023-02-06T02:20:46.214Z,29.10
2023-02-06T02:23:44.661Z,29.20
2023-02-06T02:26:44.176Z,29.10
2023-02-06T02:29:39.042Z,29.10
2023-02-06T02:32:38.126Z,29.20
2023-02-06T02:35:28.930Z,29.10
2023-02-06T02:38:25.891Z,29.10
2023-02-06T02:41:09.426Z,29.10
2023-02-06T02:43:45.245Z,29.10
2023-02-06T02:46:37.648Z,29.10
2023-02-06T02:49:09.376Z,29.10
2023-02-06T02:51:38.453Z,29.10
2023-02-06T02:54:05.936Z,29.10
2023-02-06T02:56:36.318Z,29.50
2023-02-06T02:59:09.525Z,29.10
2023-02-06T03:01:49.762Z,29.10
2023-02-06T03:04:24.826Z,29.10
2023-02-06T03:07:30.598Z,29.10
2023-02-06T03:10:17.951Z,29.10
2023-02-06T03:13:15.124Z,29.10
2023-02-06T03:16:11.438Z,29.10
2023-02-06T03:18:44.116Z,29.10
2023-02-06T03:21:16.492Z,29.10
2023-02-06T03:23:45.580Z,29.10
2023-02-06T03:26:18.075Z,29.10
2023-02-06T03:28:50.047Z,29.10
2023-02-06T03:31:25.957Z,29.10
2023-02-06T03:33:59.361Z,29.10
2023-02-06T03:36:26.564Z,29.10
2023-02-06T03:38:54.100Z,29.00
2023-02-06T03:41:28.138Z,29.00
2023-02-06T03:43:57.046Z,29.50
2023-02-06T03:46:27.080Z,29.00
2023-02-06T03:49:00.042Z,29.00
2023-02-06T03:51:34.660Z,29.00
2023-02-06T03:54:04.288Z,29.10
2023-02-06T03:56:47.305Z,29.00
2023-02-06T03:59:14.619Z,29.00
2023-02-06T04:01:45.621Z,29.10
2023-02-06T04:04:19.614Z,29.10
2023-02-06T04:06:47.151Z,29.10
2023-02-06T04:09:14.204Z,29.10
2023-02-06T04:11:41.299Z,29.10
2023-02-06T04:14:08.380Z,29.10
2023-02-06T04:16:35.474Z,29.10
2023-02-06T04:19:02.549Z,29.10
2023-02-06T04:21:29.588Z,29.10
2023-02-06T04:23:56.660Z,29.10
2023-02-06T04:26:23.711Z,29.10
2023-02-06T04:28:50.834Z,29.10
2023-02-06T04:31:18.108Z,29.10
2023-02-06T04:33:45.277Z,29.10
2023-02-06T04:36:12.387Z,29.10
2023-02-06T04:38:39.520Z,29.10
2023-02-06T04:41:07.909Z,29.00
2023-02-06T04:43:35.130Z,29.00
2023-02-06T04:46:02.323Z,29.00
2023-02-06T04:48:29.411Z,29.00
2023-02-06T04:50:56.502Z,29.00
2023-02-06T04:53:23.601Z,29.00
2023-02-06T04:55:50.683Z,29.00
2023-02-06T04:58:17.800Z,28.90
2023-02-06T05:00:44.875Z,29.00
2023-02-06T05:03:11.990Z,28.90
2023-02-06T05:05:39.126Z,29.40
2023-02-06T05:08:06.275Z,29.00
2023-02-06T05:10:33.332Z,29.00
2023-02-06T05:13:00.380Z,29.00
2023-02-06T05:15:27.486Z,29.00
2023-02-06T05:17:54.838Z,29.00
2023-02-06T05:20:21.901Z,29.00
2023-02-06T05:22:48.977Z,29.00
2023-02-06T05:25:16.142Z,29.00
2023-02-06T05:27:43.255Z,29.00
2023-02-06T05:30:11.085Z,29.00
2023-02-06T05:32:38.168Z,29.00
2023-02-06T05:35:05.518Z,29.00
2023-02-06T05:37:32.676Z,29.00
2023-02-06T05:40:00.131Z,28.80
2023-02-06T05:42:29.089Z,28.70
2023-02-06T05:44:56.197Z,28.60
2023-02-06T05:47:23.494Z,28.70
2023-02-06T05:49:50.643Z,28.70
2023-02-06T05:52:17.968Z,28.70
2023-02-06T05:54:45.342Z,28.60
2023-02-06T05:57:12.460Z,28.70
2023-02-06T05:59:39.507Z,28.70
2023-02-06T06:02:06.708Z,28.70
2023-02-06T06:04:33.876Z,28.70
2023-02-06T06:07:00.948Z,28.70
2023-02-06T06:09:28.118Z,28.70
2023-02-06T06:11:55.252Z,28.70
2023-02-06T06:14:22.324Z,28.70
2023-02-06T06:16:49.363Z,28.60
2023-02-06T06:19:16.607Z,28.60
2023-02-06T06:21:43.674Z,28.70
2023-02-06T06:28:01.903Z,28.80
2023-02-06T06:30:29.034Z,28.90
2023-02-06T06:32:56.277Z,29.00
2023-02-06T06:35:23.391Z,28.90
2023-02-06T06:37:58.538Z,28.90
2023-02-06T06:40:25.935Z,29.00
2023-02-06T06:42:53.017Z,29.00
2023-02-06T06:45:20.132Z,29.00
2023-02-06T06:47:47.281Z,28.90
2023-02-06T06:53:55.276Z,28.90
2023-02-06T06:56:22.641Z,28.80
2023-02-06T06:58:50.983Z,28.70
2023-02-06T07:01:18.795Z,28.80
2023-02-06T07:03:48.308Z,28.80
2023-02-06T07:10:06.621Z,29.20
2023-02-06T07:12:34.468Z,29.70
2023-02-06T07:15:05.237Z,29.90
2023-02-06T07:17:32.377Z,30.00
2023-02-06T07:19:59.588Z,29.80
2023-02-06T07:22:26.826Z,29.80
2023-02-06T07:24:54.585Z,29.70
2023-02-06T07:27:22.064Z,29.40
2023-02-06T07:29:54.672Z,29.30
2023-02-06T07:32:21.788Z,29.30
2023-02-06T07:34:48.839Z,29.20
2023-02-06T07:37:15.931Z,29.10
2023-02-06T07:39:42.975Z,29.10
2023-02-06T07:42:10.042Z,29.20
2023-02-06T07:48:10.447Z,29.70
2023-02-06T07:57:59.273Z,29.80
2023-02-06T08:00:26.402Z,29.80
2023-02-06T08:02:53.542Z,29.70
2023-02-06T08:10:27.274Z,29.50
2023-02-06T08:16:16.177Z,29.20
2023-02-06T08:18:43.650Z,29.20
2023-02-06T08:21:13.114Z,29.20
2023-02-06T08:23:40.562Z,29.70
2023-02-06T08:26:13.983Z,29.40
2023-02-06T08:28:42.379Z,29.50
2023-02-06T08:31:19.954Z,29.40
2023-02-06T08:34:07.489Z,29.50
2023-02-06T08:40:24.094Z,29.50
2023-02-06T08:42:52.016Z,29.50
2023-02-06T08:45:19.196Z,29.50
2023-02-06T08:47:46.321Z,29.90
2023-02-06T08:51:17.959Z,29.50
2023-02-06T08:54:11.097Z,29.50
2023-02-06T08:57:07.692Z,29.40
2023-02-06T08:59:35.065Z,29.40
2023-02-06T09:02:02.170Z,29.40
2023-02-06T09:04:32.616Z,29.30
2023-02-06T09:10:27.526Z,29.30
2023-02-06T09:12:55.467Z,29.20
2023-02-06T09:15:22.692Z,29.40
2023-02-06T09:17:49.738Z,29.40
2023-02-06T09:20:17.088Z,29.50
2023-02-06T09:22:44.759Z,29.50
2023-02-06T09:26:10.119Z,29.50
2023-02-06T09:28:37.358Z,29.50
2023-02-06T09:31:05.094Z,29.40
2023-02-06T09:33:32.293Z,29.30
2023-02-06T09:36:12.910Z,29.20
2023-02-06T09:38:44.510Z,29.20
2023-02-06T09:45:03.351Z,29.10
2023-02-06T09:47:34.603Z,29.10
2023-02-06T09:50:48.426Z,29.10
2023-02-06T09:54:09.194Z,29.00
2023-02-06T09:57:01.797Z,28.70
2023-02-06T10:04:14.678Z,28.20
2023-02-06T10:07:12.882Z,28.10
2023-02-06T10:10:04.154Z,27.90
2023-02-06T10:12:39.143Z,27.70
2023-02-06T10:19:20.765Z,27.50
2023-02-06T10:25:40.519Z,27.50
2023-02-06T10:28:22.774Z,27.60
2023-02-06T10:35:22.601Z,27.60
2023-02-06T10:39:07.121Z,27.60
2023-02-06T10:41:49.727Z,27.50
2023-02-06T10:44:31.007Z,27.50
2023-02-06T10:46:58.545Z,27.40
2023-02-06T10:49:47.930Z,27.30
2023-02-06T10:52:33.339Z,27.20
2023-02-06T10:55:30.214Z,27.00
2023-02-06T10:58:14.602Z,26.90
2023-02-06T11:00:43.620Z,26.80
2023-02-06T11:03:19.307Z,26.80
2023-02-06T11:05:48.394Z,26.80
2023-02-06T11:08:32.703Z,27.00
2023-02-06T11:11:25.449Z,26.90
2023-02-06T11:14:14.493Z,26.90
2023-02-06T11:16:44.094Z,26.80
2023-02-06T11:19:26.924Z,26.80
2023-02-06T11:22:11.162Z,26.70
2023-02-06T11:24:39.571Z,26.80
2023-02-06T11:27:20.873Z,26.70
2023-02-06T11:29:52.155Z,26.60
2023-02-06T11:32:40.988Z,26.60
2023-02-06T11:35:27.123Z,26.50
2023-02-06T11:38:05.776Z,26.60
2023-02-06T11:40:33.364Z,26.70
2023-02-06T11:43:40.150Z,26.60
2023-02-06T11:46:16.932Z,26.60
2023-02-06T11:48:48.477Z,26.60
2023-02-06T11:51:17.004Z,26.60
2023-02-06T11:54:02.460Z,26.70
2023-02-06T11:56:31.179Z,26.70
2023-02-06T11:59:23.308Z,26.70
2023-02-06T12:01:50.923Z,26.70
2023-02-06T12:04:26.266Z,26.70
2023-02-06T12:06:59.189Z,26.60
2023-02-06T12:09:27.907Z,26.60
2023-02-06T12:12:20.662Z,26.60
2023-02-06T12:14:57.733Z,26.60
2023-02-06T12:17:36.857Z,26.60
2023-02-06T12:20:13.314Z,26.50
2023-02-06T12:22:46.093Z,26.70
2023-02-06T12:25:32.768Z,27.10
2023-02-06T12:28:20.258Z,27.30
2023-02-06T12:30:59.012Z,27.50
2023-02-06T12:33:36.352Z,27.50
2023-02-06T12:36:17.577Z,27.60
2023-02-06T12:39:06.291Z,27.50
2023-02-06T12:42:14.086Z,27.50
2023-02-06T12:44:56.310Z,27.50
2023-02-06T12:47:31.808Z,27.40
2023-02-06T12:50:31.836Z,27.40
2023-02-06T12:53:18.632Z,27.40
2023-02-06T12:56:14.777Z,27.40
2023-02-06T12:59:11.976Z,27.40
2023-02-06T13:01:53.133Z,27.30
2023-02-06T13:04:24.771Z,27.30
2023-02-06T13:07:03.201Z,27.30
2023-02-06T13:09:36.284Z,27.20
2023-02-06T13:12:11.990Z,27.20
2023-02-06T13:14:54.401Z,27.20
2023-02-06T13:17:36.784Z,27.20
2023-02-06T13:20:12.657Z,27.20
2023-02-06T13:22:51.289Z,27.20
2023-02-06T13:25:50.501Z,27.10
2023-02-06T13:28:40.596Z,27.10
2023-02-06T13:31:23.428Z,27.00
2023-02-06T13:33:57.823Z,26.80
2023-02-06T13:36:41.785Z,26.70
2023-02-06T13:39:30.260Z,26.60
2023-02-06T13:42:02.088Z,26.70
2023-02-06T13:44:33.982Z,26.80
2023-02-06T13:47:25.081Z,26.80
2023-02-06T13:50:23.032Z,26.80
2023-02-06T13:53:29.806Z,26.90
2023-02-06T13:56:24.672Z,26.80
2023-02-06T13:58:55.537Z,27.00
2023-02-06T14:01:29.302Z,27.00
2023-02-06T14:03:58.370Z,27.10
2023-02-06T14:06:50.861Z,27.20
2023-02-06T14:09:51.200Z,27.30
2023-02-06T14:12:49.814Z,27.30
2023-02-06T14:15:35.778Z,27.20
2023-02-06T14:18:33.249Z,27.10
2023-02-06T14:21:18.557Z,27.10
2023-02-06T14:24:23.294Z,27.10
2023-02-06T14:27:21.055Z,27.20
2023-02-06T14:30:05.352Z,27.40
2023-02-06T14:33:03.564Z,27.70
2023-02-06T14:36:01.585Z,27.90
2023-02-06T14:39:03.634Z,27.90
2023-02-06T14:41:33.332Z,27.60
2023-02-06T14:44:01.434Z,27.40
2023-02-06T14:46:29.636Z,27.40
2023-02-06T14:49:00.578Z,27.30
2023-02-06T14:51:38.631Z,27.20
2023-02-06T14:54:26.805Z,27.20
2023-02-06T14:56:59.309Z,27.20
2023-02-06T14:59:26.724Z,27.10
2023-02-06T15:01:56.172Z,27.10
2023-02-06T15:04:29.165Z,27.10
2023-02-06T15:07:00.493Z,27.10
2023-02-06T15:09:32.002Z,27.00
2023-02-06T15:12:02.749Z,27.00
2023-02-06T15:14:32.934Z,27.00
2023-02-06T15:17:02.668Z,27.20
2023-02-06T15:19:32.941Z,27.20
2023-02-06T15:22:05.345Z,27.30
2023-02-06T15:24:57.972Z,27.40
2023-02-06T15:27:34.544Z,27.50
2023-02-06T15:30:10.130Z,27.50
2023-02-06T15:32:39.956Z,27.60
2023-02-06T15:35:32.403Z,27.90
2023-02-06T15:38:10.326Z,28.40
2023-02-06T15:40:50.766Z,27.90
2023-02-06T15:43:20.237Z,28.10
2023-02-06T15:45:50.506Z,28.20
2023-02-06T15:48:43.936Z,28.20
2023-02-06T15:51:40.129Z,28.20
2023-02-06T15:54:23.554Z,28.30
2023-02-06T15:57:11.376Z,28.30
2023-02-06T15:59:41.245Z,28.40
2023-02-06T16:02:19.852Z,28.50
2023-02-06T16:04:52.112Z,28.60
2023-02-06T16:07:25.027Z,28.70
2023-02-06T16:10:03.991Z,28.90
2023-02-06T16:12:40.088Z,29.30
2023-02-06T16:15:32.584Z,29.50
2023-02-06T16:18:02.883Z,29.70
2023-02-06T16:20:39.876Z,29.90
2023-02-06T16:23:31.109Z,30.10
2023-02-06T16:26:12.865Z,30.50
2023-02-06T16:28:49.546Z,30.80
2023-02-06T16:31:17.120Z,30.80
2023-02-06T16:33:46.509Z,30.80
2023-02-06T16:36:15.680Z,30.80
2023-02-06T16:38:48.274Z,30.80
2023-02-06T16:41:38.291Z,30.80
2023-02-06T16:44:11.903Z,30.70
2023-02-06T16:46:39.272Z,30.70
2023-02-06T16:49:12.929Z,30.50
2023-02-06T16:51:42.224Z,30.50
2023-02-06T16:54:16.621Z,30.50
2023-02-06T16:56:43.800Z,30.50
2023-02-06T16:59:10.864Z,30.50
2023-02-06T17:01:38.063Z,30.70
2023-02-06T17:04:05.253Z,30.80
2023-02-06T17:06:35.171Z,31.00
2023-02-06T17:09:08.160Z,31.00
2023-02-06T17:11:36.560Z,31.20
2023-02-06T17:14:08.079Z,31.30
2023-02-06T17:16:36.618Z,31.30
2023-02-06T17:19:04.197Z,31.40
2023-02-06T17:21:33.281Z,31.50
2023-02-06T17:24:00.488Z,31.60
2023-02-06T17:26:28.249Z,31.70
2023-02-06T17:28:55.323Z,31.60
2023-02-06T17:31:22.793Z,32.70
2023-02-06T17:33:50.064Z,34.60
2023-02-06T17:36:26.957Z,36.10
2023-02-06T17:38:54.076Z,36.30
2023-02-06T17:41:21.237Z,36.10
2023-02-06T17:43:48.453Z,36.00
2023-02-06T17:46:16.944Z,36.10
2023-02-06T17:48:44.683Z,36.30
2023-02-06T17:51:12.197Z,36.60
2023-02-06T17:53:39.480Z,36.80
2023-02-06T17:56:13.059Z,36.80
2023-02-06T17:58:41.650Z,36.40
2023-02-06T18:01:14.438Z,36.50
2023-02-06T18:03:42.541Z,35.50
2023-02-06T18:06:09.892Z,35.10
2023-02-06T18:08:37.841Z,34.70
2023-02-06T18:11:13.134Z,34.90
2023-02-06T18:13:42.653Z,34.10
2023-02-06T18:16:15.960Z,33.80
2023-02-06T18:18:46.737Z,33.70
2023-02-06T18:21:14.632Z,33.50
2023-02-06T18:23:41.795Z,33.30
2023-02-06T18:26:10.160Z,33.30
2023-02-06T18:28:38.767Z,33.40
2023-02-06T18:31:06.776Z,33.40
2023-02-06T18:33:36.119Z,33.40
2023-02-06T18:36:07.055Z,33.60
2023-02-06T18:38:34.334Z,33.60
2023-02-06T18:41:05.641Z,33.60
2023-02-06T18:43:33.559Z,33.60
2023-02-06T18:46:07.182Z,33.60
2023-02-06T18:48:34.379Z,33.60
2023-02-06T18:51:06.364Z,33.50
2023-02-06T18:53:33.877Z,33.50
2023-02-06T18:56:01.966Z,33.40
2023-02-06T18:58:29.134Z,33.30
2023-02-06T19:00:56.328Z,33.20
2023-02-06T19:03:23.449Z,33.10
2023-02-06T19:05:50.526Z,33.00
2023-02-06T19:08:17.589Z,32.90
2023-02-06T19:10:44.663Z,32.80
2023-02-06T19:13:11.728Z,32.70
2023-02-06T19:15:39.010Z,32.60
2023-02-06T19:18:07.918Z,32.50
2023-02-06T19:20:35.267Z,32.40
2023-02-06T19:23:02.560Z,32.30
2023-02-06T19:25:30.553Z,32.20
2023-02-06T19:27:57.693Z,32.10
2023-02-06T19:30:24.859Z,32.10
2023-02-06T19:32:51.942Z,32.00
2023-02-06T19:35:19.072Z,31.90
2023-02-06T19:37:46.257Z,31.90
2023-02-06T19:40:13.401Z,31.80
2023-02-06T19:42:43.500Z,31.80
2023-02-06T19:45:10.607Z,31.60
2023-02-06T19:47:37.775Z,31.60
2023-02-06T19:50:07.927Z,31.50
2023-02-06T19:52:35.459Z,31.50
2023-02-06T19:55:03.094Z,31.40
2023-02-06T19:57:30.179Z,31.40
2023-02-06T19:59:57.342Z,31.30
2023-02-06T20:02:24.392Z,31.30
2023-02-06T20:04:51.473Z,31.30
2023-02-06T20:07:18.551Z,31.20
2023-02-06T20:09:45.574Z,31.20
2023-02-06T20:12:12.770Z,31.20
2023-02-06T20:14:40.006Z,31.10
2023-02-06T20:17:07.140Z,31.10
2023-02-06T20:19:34.242Z,31.10
2023-02-06T20:22:02.686Z,31.10
2023-02-06T20:24:31.988Z,31.10
2023-02-06T20:27:03.502Z,31.10
2023-02-06T20:29:33.177Z,31.10
2023-02-06T20:32:01.050Z,30.90
2023-02-06T20:34:28.738Z,30.90
2023-02-06T20:36:56.608Z,30.90
2023-02-06T20:39:24.465Z,30.80
2023-02-06T20:41:52.036Z,30.80
2023-02-06T20:44:20.200Z,30.80
2023-02-06T20:46:47.412Z,30.70
2023-02-06T20:49:18.332Z,30.70
2023-02-06T20:51:45.454Z,30.70
2023-02-06T20:54:12.750Z,30.70
2023-02-06T20:56:40.815Z,30.70
2023-02-06T20:59:10.463Z,30.50
2023-02-06T21:01:37.760Z,30.60
2023-02-06T21:04:07.348Z,30.50
2023-02-06T21:06:35.990Z,30.50
2023-02-06T21:09:04.843Z,30.50
2023-02-06T21:11:35.010Z,30.50
2023-02-06T21:14:04.119Z,30.50
2023-02-06T21:16:32.629Z,30.50
2023-02-06T21:19:01.063Z,30.40
2023-02-06T21:21:28.485Z,30.40
2023-02-06T21:23:58.851Z,30.40
2023-02-06T21:26:27.743Z,30.40
2023-02-06T21:28:55.504Z,30.40
2023-02-06T21:31:25.263Z,30.40
2023-02-06T21:33:52.760Z,30.40
2023-02-06T21:36:21.342Z,30.40
2023-02-06T21:38:48.478Z,30.30
2023-02-06T21:41:18.277Z,30.40
2023-02-06T21:43:45.754Z,30.40
2023-02-06T21:46:13.521Z,30.30
2023-02-06T21:48:41.656Z,30.30
2023-02-06T21:51:15.308Z,30.30
2023-02-06T21:53:44.346Z,30.30
2023-02-06T21:56:16.556Z,30.30
2023-02-06T21:58:44.091Z,30.30
2023-02-06T22:01:24.668Z,30.30
2023-02-06T22:03:51.839Z,30.20
2023-02-06T22:06:20.243Z,30.20
2023-02-06T22:08:51.918Z,30.20
2023-02-06T22:11:25.960Z,30.20
2023-02-06T22:13:56.955Z,30.20
2023-02-06T22:16:24.999Z,30.20
2023-02-06T22:18:52.214Z,30.20
2023-02-06T22:21:21.780Z,30.20
2023-02-06T22:23:50.300Z,30.20
2023-02-06T22:26:19.234Z,30.20
2023-02-06T22:28:47.132Z,30.20
2023-02-06T22:31:17.782Z,30.20
2023-02-06T22:33:45.052Z,30.20
2023-02-06T22:36:15.709Z,30.20
2023-02-06T22:38:44.154Z,30.20
2023-02-06T22:41:15.600Z,30.20
2023-02-06T22:43:43.614Z,30.20
2023-02-06T22:46:20.082Z,30.20
2023-02-06T22:48:47.305Z,30.10
2023-02-06T22:51:14.377Z,30.10
2023-02-06T22:53:42.567Z,30.20
2023-02-06T22:56:31.486Z,30.70
2023-02-06T22:59:02.061Z,30.00
2023-02-06T23:01:33.310Z,30.00
2023-02-06T23:04:01.570Z,30.00
2023-02-06T23:06:30.530Z,30.00
2023-02-06T23:08:58.344Z,30.00
2023-02-06T23:11:26.282Z,30.00
2023-02-06T23:13:55.785Z,30.00
2023-02-06T23:16:23.643Z,30.00
2023-02-06T23:18:51.230Z,30.00
2023-02-06T23:21:21.024Z,30.00
2023-02-06T23:23:48.736Z,30.00
2023-02-06T23:26:17.955Z,30.00
2023-02-06T23:28:45.411Z,30.00
2023-02-06T23:31:13.328Z,30.00
2023-02-06T23:33:40.865Z,30.00
2023-02-06T23:36:14.605Z,30.00
2023-02-06T23:38:42.989Z,30.50
2023-02-06T23:41:13.238Z,30.00
2023-02-06T23:43:40.864Z,30.00
2023-02-06T23:46:11.729Z,30.00
2023-02-06T23:48:39.659Z,30.00
2023-02-06T23:51:06.930Z,30.40
2023-02-06T23:53:34.075Z,30.00
2023-02-06T23:56:01.178Z,30.00
2023-02-06T23:58:28.290Z,30.00
